sensor_id;sensor_type;location;lat;lon;timestamp;temperature;humidity
20457;DHT22;10387;51.102;6.848;2023-01-31T00:00:05;4.80;99.90
20457;DHT22;10387;51.102;6.848;2023-01-31T00:02:32;4.80;99.90
20457;DHT22;10387;51.102;6.848;2023-01-31T00:04:58;4.80;99.90
20457;DHT22;10387;51.102;6.848;2023-01-31T00:07:23;4.80;99.90
20457;DHT22;10387;51.102;6.848;2023-01-31T00:09:49;4.80;99.90
20457;DHT22;10387;51.102;6.848;2023-01-31T00:12:15;4.80;99.90
20457;DHT22;10387;51.102;6.848;2023-01-31T00:14:41;4.80;99.90
20457;DHT22;10387;51.102;6.848;2023-01-31T00:17:06;4.80;99.90
20457;DHT22;10387;51.102;6.848;2023-01-31T00:19:32;4.80;99.90
20457;DHT22;10387;51.102;6.848;2023-01-31T00:21:57;4.80;99.90
20457;DHT22;10387;51.102;6.848;2023-01-31T00:24:23;4.80;99.90
20457;DHT22;10387;51.102;6.848;2023-01-31T00:26:49;4.80;99.90
20457;DHT22;10387;51.102;6.848;2023-01-31T00:29:21;4.80;99.90
20457;DHT22;10387;51.102;6.848;2023-01-31T00:31:47;4.80;99.90
20457;DHT22;10387;51.102;6.848;2023-01-31T00:34:12;4.80;99.90
20457;DHT22;10387;51.102;6.848;2023-01-31T00:36:42;4.80;99.90
20457;DHT22;10387;51.102;6.848;2023-01-31T00:39:08;4.80;99.90
20457;DHT22;10387;51.102;6.848;2023-01-31T00:41:34;4.70;99.90
20457;DHT22;10387;51.102;6.848;2023-01-31T00:44:00;4.70;99.90
20457;DHT22;10387;51.102;6.848;2023-01-31T00:46:26;4.70;99.90
20457;DHT22;10387;51.102;6.848;2023-01-31T00:48:52;4.70;99.90
20457;DHT22;10387;51.102;6.848;2023-01-31T00:51:18;4.70;99.90
20457;DHT22;10387;51.102;6.848;2023-01-31T00:53:44;4.60;99.90
20457;DHT22;10387;51.102;6.848;2023-01-31T00:56:11;4.50;99.90
20457;DHT22;10387;51.102;6.848;2023-01-31T00:58:38;4.50;99.90
20457;DHT22;10387;51.102;6.848;2023-01-31T01:03:32;4.40;99.90
20457;DHT22;10387;51.102;6.848;2023-01-31T01:05:57;4.50;99.90
20457;DHT22;10387;51.102;6.848;2023-01-31T01:08:23;4.50;99.90
20457;DHT22;10387;51.102;6.848;2023-01-31T01:10:49;4.50;99.90
20457;DHT22;10387;51.102;6.848;2023-01-31T01:13:14;4.50;99.90
20457;DHT22;10387;51.102;6.848;2023-01-31T01:15:40;4.50;99.90
20457;DHT22;10387;51.102;6.848;2023-01-31T01:18:07;4.60;99.90
20457;DHT22;10387;51.102;6.848;2023-01-31T01:20:33;4.60;99.90
20457;DHT22;10387;51.102;6.848;2023-01-31T01:22:59;4.60;99.90
20457;DHT22;10387;51.102;6.848;2023-01-31T01:25:25;4.50;99.90
20457;DHT22;10387;51.102;6.848;2023-01-31T01:27:50;4.50;99.90
20457;DHT22;10387;51.102;6.848;2023-01-31T01:30:16;4.50;99.90
20457;DHT22;10387;51.102;6.848;2023-01-31T01:32:42;4.50;99.90
20457;DHT22;10387;51.102;6.848;2023-01-31T01:35:08;4.60;99.90
20457;DHT22;10387;51.102;6.848;2023-01-31T01:37:34;4.60;99.90
20457;DHT22;10387;51.102;6.848;2023-01-31T01:40:00;4.60;99.90
20457;DHT22;10387;51.102;6.848;2023-01-31T01:42:25;4.60;99.90
20457;DHT22;10387;51.102;6.848;2023-01-31T01:44:52;4.60;99.90
20457;DHT22;10387;51.102;6.848;2023-01-31T01:49:48;4.60;99.90
20457;DHT22;10387;51.102;6.848;2023-01-31T01:52:15;4.50;99.90
20457;DHT22;10387;51.102;6.848;2023-01-31T01:54:46;4.50;99.90
20457;DHT22;10387;51.102;6.848;2023-01-31T01:57:14;4.50;99.90
20457;DHT22;10387;51.102;6.848;2023-01-31T01:59:42;4.40;99.90
20457;DHT22;10387;51.102;6.848;2023-01-31T02:02:09;4.40;99.90
20457;DHT22;10387;51.102;6.848;2023-01-31T02:04:35;4.40;99.90
20457;DHT22;10387;51.102;6.848;2023-01-31T02:07:01;4.40;99.90
20457;DHT22;10387;51.102;6.848;2023-01-31T02:11:53;4.40;99.90
20457;DHT22;10387;51.102;6.848;2023-01-31T02:14:19;4.40;99.90
20457;DHT22;10387;51.102;6.848;2023-01-31T02:16:45;4.40;99.90
20457;DHT22;10387;51.102;6.848;2023-01-31T02:19:19;4.40;99.90
20457;DHT22;10387;51.102;6.848;2023-01-31T02:21:53;4.30;99.90
20457;DHT22;10387;51.102;6.848;2023-01-31T02:27:04;4.30;99.90
20457;DHT22;10387;51.102;6.848;2023-01-31T02:32:19;4.20;99.90
20457;DHT22;10387;51.102;6.848;2023-01-31T02:42:38;4.10;99.90
20457;DHT22;10387;51.102;6.848;2023-01-31T02:45:14;4.10;99.90
20457;DHT22;10387;51.102;6.848;2023-01-31T02:47:53;4.10;99.90
20457;DHT22;10387;51.102;6.848;2023-01-31T02:50:23;4.00;99.90
20457;DHT22;10387;51.102;6.848;2023-01-31T02:52:52;4.00;99.90
20457;DHT22;10387;51.102;6.848;2023-01-31T02:55:28;4.00;99.90
20457;DHT22;10387;51.102;6.848;2023-01-31T02:58:15;4.00;99.90
20457;DHT22;10387;51.102;6.848;2023-01-31T03:00:42;4.00;99.90
20457;DHT22;10387;51.102;6.848;2023-01-31T03:03:21;4.00;99.90
20457;DHT22;10387;51.102;6.848;2023-01-31T03:08:31;4.00;99.90
20457;DHT22;10387;51.102;6.848;2023-01-31T03:11:01;4.00;99.90
20457;DHT22;10387;51.102;6.848;2023-01-31T03:18:52;3.90;99.90
20457;DHT22;10387;51.102;6.848;2023-01-31T03:21:23;3.90;99.90
20457;DHT22;10387;51.102;6.848;2023-01-31T03:23:52;3.70;99.90
20457;DHT22;10387;51.102;6.848;2023-01-31T03:26:19;3.70;99.90
20457;DHT22;10387;51.102;6.848;2023-01-31T03:28:47;3.60;99.90
20457;DHT22;10387;51.102;6.848;2023-01-31T03:31:32;3.50;99.90
20457;DHT22;10387;51.102;6.848;2023-01-31T03:34:04;3.50;99.90
20457;DHT22;10387;51.102;6.848;2023-01-31T03:36:34;3.40;99.90
20457;DHT22;10387;51.102;6.848;2023-01-31T03:41:58;3.30;99.90
20457;DHT22;10387;51.102;6.848;2023-01-31T03:47:46;3.20;99.90
20457;DHT22;10387;51.102;6.848;2023-01-31T03:49:53;3.20;99.90
20457;DHT22;10387;51.102;6.848;2023-01-31T03:52:22;3.10;99.90
20457;DHT22;10387;51.102;6.848;2023-01-31T03:54:53;3.10;99.90
20457;DHT22;10387;51.102;6.848;2023-01-31T03:57:21;3.00;99.90
20457;DHT22;10387;51.102;6.848;2023-01-31T03:59:48;3.00;99.90
20457;DHT22;10387;51.102;6.848;2023-01-31T04:02:18;3.00;99.90
20457;DHT22;10387;51.102;6.848;2023-01-31T04:04:47;2.90;99.90
20457;DHT22;10387;51.102;6.848;2023-01-31T04:07:14;2.90;99.90
20457;DHT22;10387;51.102;6.848;2023-01-31T04:09:40;2.90;99.90
20457;DHT22;10387;51.102;6.848;2023-01-31T04:12:05;2.80;99.90
20457;DHT22;10387;51.102;6.848;2023-01-31T04:14:31;2.70;99.90
20457;DHT22;10387;51.102;6.848;2023-01-31T04:16:56;2.60;99.90
20457;DHT22;10387;51.102;6.848;2023-01-31T04:19:22;2.70;99.90
20457;DHT22;10387;51.102;6.848;2023-01-31T04:21:47;2.70;99.90
20457;DHT22;10387;51.102;6.848;2023-01-31T04:24:13;2.80;99.90
20457;DHT22;10387;51.102;6.848;2023-01-31T04:26:39;2.80;99.90
20457;DHT22;10387;51.102;6.848;2023-01-31T04:29:04;2.80;99.90
20457;DHT22;10387;51.102;6.848;2023-01-31T04:31:30;2.80;99.90
20457;DHT22;10387;51.102;6.848;2023-01-31T04:33:56;2.90;99.90
20457;DHT22;10387;51.102;6.848;2023-01-31T04:36:25;2.90;99.90
20457;DHT22;10387;51.102;6.848;2023-01-31T04:38:51;3.00;99.90
20457;DHT22;10387;51.102;6.848;2023-01-31T04:41:16;3.00;99.90
20457;DHT22;10387;51.102;6.848;2023-01-31T04:43:42;3.00;99.90
20457;DHT22;10387;51.102;6.848;2023-01-31T04:46:07;3.00;99.90
20457;DHT22;10387;51.102;6.848;2023-01-31T04:48:33;3.00;99.90
20457;DHT22;10387;51.102;6.848;2023-01-31T04:50:58;3.00;99.90
20457;DHT22;10387;51.102;6.848;2023-01-31T04:53:24;3.00;99.90
20457;DHT22;10387;51.102;6.848;2023-01-31T04:55:52;3.00;99.90
20457;DHT22;10387;51.102;6.848;2023-01-31T04:58:17;3.00;99.90
20457;DHT22;10387;51.102;6.848;2023-01-31T05:00:44;3.00;99.90
20457;DHT22;10387;51.102;6.848;2023-01-31T05:03:10;3.10;99.90
20457;DHT22;10387;51.102;6.848;2023-01-31T05:05:36;3.10;99.90
20457;DHT22;10387;51.102;6.848;2023-01-31T05:08:02;3.10;99.90
20457;DHT22;10387;51.102;6.848;2023-01-31T05:10:27;3.10;99.90
20457;DHT22;10387;51.102;6.848;2023-01-31T05:12:53;3.10;99.90
20457;DHT22;10387;51.102;6.848;2023-01-31T05:15:18;3.10;99.90
20457;DHT22;10387;51.102;6.848;2023-01-31T05:17:50;3.10;99.90
20457;DHT22;10387;51.102;6.848;2023-01-31T05:20:17;3.10;99.90
20457;DHT22;10387;51.102;6.848;2023-01-31T05:22:45;3.20;99.90
20457;DHT22;10387;51.102;6.848;2023-01-31T05:25:11;3.20;99.90
20457;DHT22;10387;51.102;6.848;2023-01-31T05:27:36;3.20;99.90
20457;DHT22;10387;51.102;6.848;2023-01-31T05:30:02;3.20;99.90
20457;DHT22;10387;51.102;6.848;2023-01-31T05:32:29;3.20;99.90
20457;DHT22;10387;51.102;6.848;2023-01-31T05:34:55;3.30;99.90
20457;DHT22;10387;51.102;6.848;2023-01-31T05:37:20;3.30;99.90
20457;DHT22;10387;51.102;6.848;2023-01-31T05:39:46;3.30;99.90
20457;DHT22;10387;51.102;6.848;2023-01-31T05:42:12;3.30;99.90
20457;DHT22;10387;51.102;6.848;2023-01-31T05:44:37;3.30;99.90
20457;DHT22;10387;51.102;6.848;2023-01-31T05:47:03;3.30;99.90
20457;DHT22;10387;51.102;6.848;2023-01-31T05:49:28;3.30;99.90
20457;DHT22;10387;51.102;6.848;2023-01-31T05:51:58;3.30;99.90
20457;DHT22;10387;51.102;6.848;2023-01-31T05:54:24;3.40;99.90
20457;DHT22;10387;51.102;6.848;2023-01-31T05:56:49;3.40;99.90
20457;DHT22;10387;51.102;6.848;2023-01-31T05:59:15;3.50;99.90
20457;DHT22;10387;51.102;6.848;2023-01-31T06:01:40;3.40;99.90
20457;DHT22;10387;51.102;6.848;2023-01-31T06:04:06;3.40;99.90
20457;DHT22;10387;51.102;6.848;2023-01-31T06:06:31;3.40;99.90
20457;DHT22;10387;51.102;6.848;2023-01-31T06:08:57;3.40;99.90
20457;DHT22;10387;51.102;6.848;2023-01-31T06:11:22;3.40;99.90
20457;DHT22;10387;51.102;6.848;2023-01-31T06:13:49;3.40;99.90
20457;DHT22;10387;51.102;6.848;2023-01-31T06:16:15;3.40;99.90
20457;DHT22;10387;51.102;6.848;2023-01-31T06:18:40;3.50;99.90
20457;DHT22;10387;51.102;6.848;2023-01-31T06:21:06;3.50;99.90
20457;DHT22;10387;51.102;6.848;2023-01-31T06:23:31;3.50;99.90
20457;DHT22;10387;51.102;6.848;2023-01-31T06:25:58;3.50;99.90
20457;DHT22;10387;51.102;6.848;2023-01-31T06:28:24;3.60;99.90
20457;DHT22;10387;51.102;6.848;2023-01-31T06:30:49;3.60;99.90
20457;DHT22;10387;51.102;6.848;2023-01-31T06:33:15;3.60;99.90
20457;DHT22;10387;51.102;6.848;2023-01-31T06:35:41;3.70;99.90
20457;DHT22;10387;51.102;6.848;2023-01-31T06:38:06;3.60;99.90
20457;DHT22;10387;51.102;6.848;2023-01-31T06:40:33;3.70;99.90
20457;DHT22;10387;51.102;6.848;2023-01-31T06:43:00;3.70;99.90
20457;DHT22;10387;51.102;6.848;2023-01-31T06:45:25;3.70;99.90
20457;DHT22;10387;51.102;6.848;2023-01-31T06:47:51;3.70;99.90
20457;DHT22;10387;51.102;6.848;2023-01-31T06:50:16;3.70;99.90
20457;DHT22;10387;51.102;6.848;2023-01-31T06:52:42;3.70;99.90
20457;DHT22;10387;51.102;6.848;2023-01-31T06:55:08;3.70;99.90
20457;DHT22;10387;51.102;6.848;2023-01-31T06:57:34;3.80;99.90
20457;DHT22;10387;51.102;6.848;2023-01-31T06:59:59;3.80;99.90
20457;DHT22;10387;51.102;6.848;2023-01-31T07:02:25;3.90;99.90
20457;DHT22;10387;51.102;6.848;2023-01-31T07:04:50;3.90;99.90
20457;DHT22;10387;51.102;6.848;2023-01-31T07:07:16;4.00;99.90
20457;DHT22;10387;51.102;6.848;2023-01-31T07:09:42;4.10;99.90
20457;DHT22;10387;51.102;6.848;2023-01-31T07:12:07;4.20;99.90
20457;DHT22;10387;51.102;6.848;2023-01-31T07:14:32;4.30;99.90
20457;DHT22;10387;51.102;6.848;2023-01-31T07:16:58;4.30;99.90
20457;DHT22;10387;51.102;6.848;2023-01-31T07:19:24;4.30;99.90
20457;DHT22;10387;51.102;6.848;2023-01-31T07:21:49;4.30;99.90
20457;DHT22;10387;51.102;6.848;2023-01-31T07:24:15;4.40;99.90
20457;DHT22;10387;51.102;6.848;2023-01-31T07:26:40;4.40;99.90
20457;DHT22;10387;51.102;6.848;2023-01-31T07:29:06;4.40;99.90
20457;DHT22;10387;51.102;6.848;2023-01-31T07:31:31;4.40;99.90
20457;DHT22;10387;51.102;6.848;2023-01-31T07:33:58;4.40;99.90
20457;DHT22;10387;51.102;6.848;2023-01-31T07:36:23;4.40;99.90
20457;DHT22;10387;51.102;6.848;2023-01-31T07:38:54;4.40;99.90
20457;DHT22;10387;51.102;6.848;2023-01-31T07:41:20;4.50;99.90
20457;DHT22;10387;51.102;6.848;2023-01-31T07:43:46;4.50;99.90
20457;DHT22;10387;51.102;6.848;2023-01-31T07:46:12;4.50;99.90
20457;DHT22;10387;51.102;6.848;2023-01-31T07:48:37;4.60;99.90
20457;DHT22;10387;51.102;6.848;2023-01-31T07:51:03;4.60;99.90
20457;DHT22;10387;51.102;6.848;2023-01-31T07:53:30;4.60;99.90
20457;DHT22;10387;51.102;6.848;2023-01-31T07:56:09;4.60;99.90
20457;DHT22;10387;51.102;6.848;2023-01-31T07:58:35;4.70;99.90
20457;DHT22;10387;51.102;6.848;2023-01-31T08:01:01;4.70;99.90
20457;DHT22;10387;51.102;6.848;2023-01-31T08:03:48;4.70;99.90
20457;DHT22;10387;51.102;6.848;2023-01-31T08:06:16;4.80;99.90
20457;DHT22;10387;51.102;6.848;2023-01-31T08:08:42;4.90;99.90
20457;DHT22;10387;51.102;6.848;2023-01-31T08:11:08;4.90;99.90
20457;DHT22;10387;51.102;6.848;2023-01-31T08:13:33;5.00;99.90
20457;DHT22;10387;51.102;6.848;2023-01-31T08:15:59;5.00;99.90
20457;DHT22;10387;51.102;6.848;2023-01-31T08:18:25;5.10;99.90
20457;DHT22;10387;51.102;6.848;2023-01-31T08:20:51;5.10;99.90
20457;DHT22;10387;51.102;6.848;2023-01-31T08:23:16;5.10;99.90
20457;DHT22;10387;51.102;6.848;2023-01-31T08:25:42;5.10;99.90
20457;DHT22;10387;51.102;6.848;2023-01-31T08:28:08;5.10;99.90
20457;DHT22;10387;51.102;6.848;2023-01-31T08:30:33;5.10;99.90
20457;DHT22;10387;51.102;6.848;2023-01-31T08:32:59;5.20;99.90
20457;DHT22;10387;51.102;6.848;2023-01-31T08:35:25;5.30;99.90
20457;DHT22;10387;51.102;6.848;2023-01-31T08:37:51;5.30;99.90
20457;DHT22;10387;51.102;6.848;2023-01-31T08:40:17;5.30;99.90
20457;DHT22;10387;51.102;6.848;2023-01-31T08:42:42;5.40;99.90
20457;DHT22;10387;51.102;6.848;2023-01-31T08:45:08;5.40;99.90
20457;DHT22;10387;51.102;6.848;2023-01-31T08:47:34;5.40;99.90
20457;DHT22;10387;51.102;6.848;2023-01-31T08:50:01;5.40;99.90
20457;DHT22;10387;51.102;6.848;2023-01-31T08:52:26;5.40;99.90
20457;DHT22;10387;51.102;6.848;2023-01-31T08:54:52;5.40;99.90
20457;DHT22;10387;51.102;6.848;2023-01-31T08:57:17;5.40;99.90
20457;DHT22;10387;51.102;6.848;2023-01-31T08:59:45;5.40;99.90
20457;DHT22;10387;51.102;6.848;2023-01-31T09:02:10;5.40;99.90
20457;DHT22;10387;51.102;6.848;2023-01-31T09:04:36;5.40;99.90
20457;DHT22;10387;51.102;6.848;2023-01-31T09:07:01;5.40;99.90
20457;DHT22;10387;51.102;6.848;2023-01-31T09:09:27;5.50;99.90
20457;DHT22;10387;51.102;6.848;2023-01-31T09:11:52;5.50;99.90
20457;DHT22;10387;51.102;6.848;2023-01-31T09:14:18;5.50;99.90
20457;DHT22;10387;51.102;6.848;2023-01-31T09:16:43;5.50;99.90
20457;DHT22;10387;51.102;6.848;2023-01-31T09:19:11;5.60;99.90
20457;DHT22;10387;51.102;6.848;2023-01-31T09:21:37;5.60;99.90
20457;DHT22;10387;51.102;6.848;2023-01-31T09:24:02;5.70;99.90
20457;DHT22;10387;51.102;6.848;2023-01-31T09:26:28;5.80;99.90
20457;DHT22;10387;51.102;6.848;2023-01-31T09:28:54;5.80;99.90
20457;DHT22;10387;51.102;6.848;2023-01-31T09:31:20;5.80;99.90
20457;DHT22;10387;51.102;6.848;2023-01-31T09:33:46;5.90;99.90
20457;DHT22;10387;51.102;6.848;2023-01-31T09:36:13;5.90;99.90
20457;DHT22;10387;51.102;6.848;2023-01-31T09:38:38;5.90;99.90
20457;DHT22;10387;51.102;6.848;2023-01-31T09:41:11;5.80;99.90
20457;DHT22;10387;51.102;6.848;2023-01-31T09:43:39;5.80;99.90
20457;DHT22;10387;51.102;6.848;2023-01-31T09:46:06;5.80;99.90
20457;DHT22;10387;51.102;6.848;2023-01-31T09:48:36;5.80;99.90
20457;DHT22;10387;51.102;6.848;2023-01-31T09:51:03;5.80;99.90
20457;DHT22;10387;51.102;6.848;2023-01-31T09:53:31;5.90;99.90
20457;DHT22;10387;51.102;6.848;2023-01-31T10:06:29;6.10;99.90
20457;DHT22;10387;51.102;6.848;2023-01-31T10:09:02;6.10;99.90
20457;DHT22;10387;51.102;6.848;2023-01-31T10:11:30;6.10;99.90
20457;DHT22;10387;51.102;6.848;2023-01-31T10:14:00;6.10;99.90
20457;DHT22;10387;51.102;6.848;2023-01-31T10:16:34;6.10;99.90
20457;DHT22;10387;51.102;6.848;2023-01-31T10:19:07;6.30;99.90
20457;DHT22;10387;51.102;6.848;2023-01-31T10:21:36;6.30;99.90
20457;DHT22;10387;51.102;6.848;2023-01-31T10:25:06;6.50;99.90
20457;DHT22;10387;51.102;6.848;2023-01-31T10:27:06;6.60;99.90
20457;DHT22;10387;51.102;6.848;2023-01-31T10:29:37;6.60;99.90
20457;DHT22;10387;51.102;6.848;2023-01-31T10:32:04;6.50;99.90
20457;DHT22;10387;51.102;6.848;2023-01-31T10:35:38;6.50;99.90
20457;DHT22;10387;51.102;6.848;2023-01-31T10:37:33;6.60;99.90
20457;DHT22;10387;51.102;6.848;2023-01-31T10:40:14;6.60;99.90
20457;DHT22;10387;51.102;6.848;2023-01-31T10:42:41;6.60;99.90
20457;DHT22;10387;51.102;6.848;2023-01-31T10:45:11;6.70;99.90
20457;DHT22;10387;51.102;6.848;2023-01-31T10:47:40;6.80;99.90
20457;DHT22;10387;51.102;6.848;2023-01-31T10:50:12;6.90;99.90
20457;DHT22;10387;51.102;6.848;2023-01-31T10:58:18;7.00;99.90
20457;DHT22;10387;51.102;6.848;2023-01-31T11:00:44;7.10;99.90
20457;DHT22;10387;51.102;6.848;2023-01-31T11:03:11;7.10;99.90
20457;DHT22;10387;51.102;6.848;2023-01-31T11:05:40;7.10;99.90
20457;DHT22;10387;51.102;6.848;2023-01-31T11:10:51;7.20;99.90
20457;DHT22;10387;51.102;6.848;2023-01-31T11:13:17;7.30;99.90
20457;DHT22;10387;51.102;6.848;2023-01-31T11:15:43;7.20;99.90
20457;DHT22;10387;51.102;6.848;2023-01-31T11:18:21;7.30;99.90
20457;DHT22;10387;51.102;6.848;2023-01-31T11:20:50;7.20;99.90
20457;DHT22;10387;51.102;6.848;2023-01-31T11:23:22;7.20;99.90
20457;DHT22;10387;51.102;6.848;2023-01-31T11:25:49;7.10;99.90
20457;DHT22;10387;51.102;6.848;2023-01-31T11:28:28;7.10;99.90
20457;DHT22;10387;51.102;6.848;2023-01-31T11:30:57;7.00;99.90
20457;DHT22;10387;51.102;6.848;2023-01-31T11:36:10;6.80;99.90
20457;DHT22;10387;51.102;6.848;2023-01-31T11:38:35;6.80;99.90
20457;DHT22;10387;51.102;6.848;2023-01-31T11:41:02;6.80;99.90
20457;DHT22;10387;51.102;6.848;2023-01-31T11:43:46;6.80;99.90
20457;DHT22;10387;51.102;6.848;2023-01-31T11:46:12;6.90;99.90
20457;DHT22;10387;51.102;6.848;2023-01-31T11:48:41;6.90;99.90
20457;DHT22;10387;51.102;6.848;2023-01-31T11:51:07;6.90;99.90
20457;DHT22;10387;51.102;6.848;2023-01-31T11:53:38;6.80;99.90
20457;DHT22;10387;51.102;6.848;2023-01-31T11:56:15;6.80;99.90
20457;DHT22;10387;51.102;6.848;2023-01-31T11:58:42;6.80;99.90
20457;DHT22;10387;51.102;6.848;2023-01-31T12:01:15;6.70;99.90
20457;DHT22;10387;51.102;6.848;2023-01-31T12:06:34;6.80;99.90
20457;DHT22;10387;51.102;6.848;2023-01-31T12:09:02;6.80;99.90
20457;DHT22;10387;51.102;6.848;2023-01-31T12:11:32;6.90;99.90
20457;DHT22;10387;51.102;6.848;2023-01-31T12:16:28;6.90;99.90
20457;DHT22;10387;51.102;6.848;2023-01-31T12:19:02;6.90;99.90
20457;DHT22;10387;51.102;6.848;2023-01-31T12:31:44;6.80;99.90
20457;DHT22;10387;51.102;6.848;2023-01-31T12:34:16;6.90;99.90
20457;DHT22;10387;51.102;6.848;2023-01-31T12:36:47;6.90;99.90
20457;DHT22;10387;51.102;6.848;2023-01-31T12:59:53;6.80;99.90
20457;DHT22;10387;51.102;6.848;2023-01-31T13:07:37;6.90;99.90
20457;DHT22;10387;51.102;6.848;2023-01-31T13:10:06;6.90;99.90
20457;DHT22;10387;51.102;6.848;2023-01-31T13:12:41;6.90;99.90
20457;DHT22;10387;51.102;6.848;2023-01-31T13:15:16;6.90;99.90
20457;DHT22;10387;51.102;6.848;2023-01-31T13:17:43;6.90;99.90
20457;DHT22;10387;51.102;6.848;2023-01-31T13:22:47;6.90;99.90
20457;DHT22;10387;51.102;6.848;2023-01-31T13:25:19;6.90;99.90
20457;DHT22;10387;51.102;6.848;2023-01-31T13:27:51;6.90;99.90
20457;DHT22;10387;51.102;6.848;2023-01-31T13:30:22;6.90;99.90
20457;DHT22;10387;51.102;6.848;2023-01-31T13:32:49;6.90;99.90
20457;DHT22;10387;51.102;6.848;2023-01-31T13:35:19;6.90;99.90
20457;DHT22;10387;51.102;6.848;2023-01-31T13:37:47;6.90;99.90
20457;DHT22;10387;51.102;6.848;2023-01-31T13:42:40;7.00;99.90
20457;DHT22;10387;51.102;6.848;2023-01-31T13:45:06;7.00;99.90
20457;DHT22;10387;51.102;6.848;2023-01-31T13:47:35;7.00;99.90
20457;DHT22;10387;51.102;6.848;2023-01-31T13:55:00;6.70;99.90
20457;DHT22;10387;51.102;6.848;2023-01-31T13:57:31;6.70;99.90
20457;DHT22;10387;51.102;6.848;2023-01-31T14:00:09;6.70;99.90
20457;DHT22;10387;51.102;6.848;2023-01-31T14:08:28;6.60;99.90
20457;DHT22;10387;51.102;6.848;2023-01-31T14:10:55;6.60;99.90
20457;DHT22;10387;51.102;6.848;2023-01-31T14:13:42;6.60;99.90
20457;DHT22;10387;51.102;6.848;2023-01-31T14:18:51;6.60;99.90
20457;DHT22;10387;51.102;6.848;2023-01-31T14:23:58;6.60;99.90
20457;DHT22;10387;51.102;6.848;2023-01-31T14:29:08;6.60;99.90
20457;DHT22;10387;51.102;6.848;2023-01-31T14:31:34;6.60;99.90
20457;DHT22;10387;51.102;6.848;2023-01-31T14:34:01;6.60;99.90
20457;DHT22;10387;51.102;6.848;2023-01-31T14:49:31;6.70;99.90
20457;DHT22;10387;51.102;6.848;2023-01-31T14:59:28;6.70;99.90
20457;DHT22;10387;51.102;6.848;2023-01-31T15:01:56;6.70;99.90
20457;DHT22;10387;51.102;6.848;2023-01-31T15:04:22;6.70;99.90
20457;DHT22;10387;51.102;6.848;2023-01-31T15:06:50;6.70;99.90
20457;DHT22;10387;51.102;6.848;2023-01-31T15:11:49;6.70;99.90
20457;DHT22;10387;51.102;6.848;2023-01-31T15:16:47;6.70;99.90
20457;DHT22;10387;51.102;6.848;2023-01-31T15:19:19;6.70;99.90
20457;DHT22;10387;51.102;6.848;2023-01-31T15:21:49;6.70;99.90
20457;DHT22;10387;51.102;6.848;2023-01-31T15:24:26;6.70;99.90
20457;DHT22;10387;51.102;6.848;2023-01-31T15:26:54;6.70;99.90
20457;DHT22;10387;51.102;6.848;2023-01-31T15:29:22;6.70;99.90
20457;DHT22;10387;51.102;6.848;2023-01-31T15:31:49;6.70;99.90
20457;DHT22;10387;51.102;6.848;2023-01-31T15:34:24;6.70;99.90
20457;DHT22;10387;51.102;6.848;2023-01-31T15:37:01;6.70;99.90
20457;DHT22;10387;51.102;6.848;2023-01-31T15:39:39;6.70;99.90
20457;DHT22;10387;51.102;6.848;2023-01-31T15:45:23;6.70;99.90
20457;DHT22;10387;51.102;6.848;2023-01-31T15:47:56;6.70;99.90
20457;DHT22;10387;51.102;6.848;2023-01-31T15:50:22;6.80;99.90
20457;DHT22;10387;51.102;6.848;2023-01-31T15:52:47;6.80;99.90
20457;DHT22;10387;51.102;6.848;2023-01-31T15:55:14;6.80;99.90
20457;DHT22;10387;51.102;6.848;2023-01-31T15:57:41;6.80;99.90
20457;DHT22;10387;51.102;6.848;2023-01-31T16:00:12;6.80;99.90
20457;DHT22;10387;51.102;6.848;2023-01-31T16:02:41;6.80;99.90
20457;DHT22;10387;51.102;6.848;2023-01-31T16:05:07;6.90;99.90
20457;DHT22;10387;51.102;6.848;2023-01-31T16:07:32;6.80;99.90
20457;DHT22;10387;51.102;6.848;2023-01-31T16:09:59;6.80;99.90
20457;DHT22;10387;51.102;6.848;2023-01-31T16:12:29;6.80;99.90
20457;DHT22;10387;51.102;6.848;2023-01-31T16:14:55;6.80;99.90
20457;DHT22;10387;51.102;6.848;2023-01-31T16:17:24;6.80;99.90
20457;DHT22;10387;51.102;6.848;2023-01-31T16:19:50;6.80;99.90
20457;DHT22;10387;51.102;6.848;2023-01-31T16:22:29;6.90;99.90
20457;DHT22;10387;51.102;6.848;2023-01-31T16:24:56;6.90;99.90
20457;DHT22;10387;51.102;6.848;2023-01-31T16:27:22;6.90;99.90
20457;DHT22;10387;51.102;6.848;2023-01-31T16:29:49;7.00;99.90
20457;DHT22;10387;51.102;6.848;2023-01-31T16:32:20;7.00;99.90
20457;DHT22;10387;51.102;6.848;2023-01-31T16:34:50;7.00;99.90
20457;DHT22;10387;51.102;6.848;2023-01-31T16:37:16;7.00;99.90
20457;DHT22;10387;51.102;6.848;2023-01-31T16:39:52;7.00;99.90
20457;DHT22;10387;51.102;6.848;2023-01-31T16:42:23;7.00;99.90
20457;DHT22;10387;51.102;6.848;2023-01-31T16:44:50;7.00;99.90
20457;DHT22;10387;51.102;6.848;2023-01-31T16:52:45;7.00;99.90
20457;DHT22;10387;51.102;6.848;2023-01-31T16:55:14;7.00;99.90
20457;DHT22;10387;51.102;6.848;2023-01-31T16:57:40;7.00;99.90
20457;DHT22;10387;51.102;6.848;2023-01-31T17:00:06;7.00;99.90
20457;DHT22;10387;51.102;6.848;2023-01-31T17:02:33;7.00;99.90
20457;DHT22;10387;51.102;6.848;2023-01-31T17:05:08;7.00;99.90
20457;DHT22;10387;51.102;6.848;2023-01-31T17:07:38;7.00;99.90
20457;DHT22;10387;51.102;6.848;2023-01-31T17:10:07;7.00;99.90
20457;DHT22;10387;51.102;6.848;2023-01-31T17:12:34;7.00;99.90
20457;DHT22;10387;51.102;6.848;2023-01-31T17:15:01;7.00;99.90
20457;DHT22;10387;51.102;6.848;2023-01-31T17:17:31;7.00;99.90
20457;DHT22;10387;51.102;6.848;2023-01-31T17:19:58;7.00;99.90
20457;DHT22;10387;51.102;6.848;2023-01-31T17:22:24;7.00;99.90
20457;DHT22;10387;51.102;6.848;2023-01-31T17:24:50;7.00;99.90
20457;DHT22;10387;51.102;6.848;2023-01-31T17:27:16;7.10;99.90
20457;DHT22;10387;51.102;6.848;2023-01-31T17:29:43;7.10;99.90
20457;DHT22;10387;51.102;6.848;2023-01-31T17:32:12;7.10;99.90
20457;DHT22;10387;51.102;6.848;2023-01-31T17:34:38;7.10;99.90
20457;DHT22;10387;51.102;6.848;2023-01-31T17:37:04;7.10;99.90
20457;DHT22;10387;51.102;6.848;2023-01-31T17:39:29;7.10;99.90
20457;DHT22;10387;51.102;6.848;2023-01-31T17:41:55;7.00;99.90
20457;DHT22;10387;51.102;6.848;2023-01-31T17:44:20;7.10;99.90
20457;DHT22;10387;51.102;6.848;2023-01-31T17:46:46;7.10;99.90
20457;DHT22;10387;51.102;6.848;2023-01-31T17:49:12;7.10;99.90
20457;DHT22;10387;51.102;6.848;2023-01-31T17:51:38;7.10;99.90
20457;DHT22;10387;51.102;6.848;2023-01-31T17:54:05;7.00;99.90
20457;DHT22;10387;51.102;6.848;2023-01-31T17:56:30;7.00;99.90
20457;DHT22;10387;51.102;6.848;2023-01-31T17:58:56;7.00;99.90
20457;DHT22;10387;51.102;6.848;2023-01-31T18:01:22;7.00;99.90
20457;DHT22;10387;51.102;6.848;2023-01-31T18:03:47;7.00;99.90
20457;DHT22;10387;51.102;6.848;2023-01-31T18:06:13;7.00;99.90
20457;DHT22;10387;51.102;6.848;2023-01-31T18:08:40;7.10;99.90
20457;DHT22;10387;51.102;6.848;2023-01-31T18:11:13;7.10;99.90
20457;DHT22;10387;51.102;6.848;2023-01-31T18:13:39;7.00;99.90
20457;DHT22;10387;51.102;6.848;2023-01-31T18:16:08;7.00;99.90
20457;DHT22;10387;51.102;6.848;2023-01-31T18:18:35;6.90;99.90
20457;DHT22;10387;51.102;6.848;2023-01-31T18:21:00;6.80;99.90
20457;DHT22;10387;51.102;6.848;2023-01-31T18:23:27;6.80;99.90